<?xml version="1.0" encoding="UTF-8" standalone="no" ?>
<gpx xmlns="http://www.topografix.com/GPX/1/1" xmlns:xsi="http://www.w3.org/2001/XMLSchema-instance" xsi:schemaLocation="http://www.topografix.com/GPX/1/1 http://www.topografix.com/GPX/1/1/gpx.xsd" version="1.1" creator="VisuGPX - https://www.visugpx.com">
  <metadata>
    <name>StLaurentsevre_MallievreMoulinGuy_11-18km</name>
    <desc><![CDATA[gnerando idor:6542746_6636816_6717107_8386774_]]></desc>
  </metadata>
  <trk>
    <name><![CDATA[StLaurentSèvre_MoulinGuy_11.4km-6542746]]></name>
    <extensions>
      <line xmlns="http://www.topografix.com/GPX/gpx_style/0/2">
        <color>FF0000</color>
        <width>4</width>
      </line>
    </extensions>
    <trkseg>
      <trkpt lat="46.95896" lon="-0.88966">
        <ele>116</ele>
        <time>2023-11-13T07:30:01Z</time>
      </trkpt>
      <trkpt lat="46.95665" lon="-0.89135">
        <ele>128</ele>
        <time>2023-11-13T07:35:46Z</time>
      </trkpt>
      <trkpt lat="46.95826" lon="-0.89298">
        <ele>127</ele>
        <time>2023-11-13T07:40:07Z</time>
      </trkpt>
      <trkpt lat="46.95776" lon="-0.89538">
        <ele>135</ele>
        <time>2023-11-13T07:43:55Z</time>
      </trkpt>
      <trkpt lat="46.95808" lon="-0.89594">
        <ele>135</ele>
        <time>2023-11-13T07:45:02Z</time>
      </trkpt>
      <trkpt lat="46.9584" lon="-0.898">
        <ele>134</ele>
        <time>2023-11-13T07:48:14Z</time>
      </trkpt>
      <trkpt lat="46.95647" lon="-0.89817">
        <ele>140</ele>
        <time>2023-11-13T07:52:32Z</time>
      </trkpt>
      <trkpt lat="46.95662" lon="-0.89933">
        <ele>138</ele>
        <time>2023-11-13T07:54:20Z</time>
      </trkpt>
      <trkpt lat="46.95829" lon="-0.89989">
        <ele>139</ele>
        <time>2023-11-13T07:58:08Z</time>
      </trkpt>
      <trkpt lat="46.95726" lon="-0.90203">
        <ele>150</ele>
        <time>2023-11-13T08:02:07Z</time>
      </trkpt>
      <trkpt lat="46.95767" lon="-0.90324">
        <ele>149</ele>
        <time>2023-11-13T08:04:10Z</time>
      </trkpt>
      <trkpt lat="46.95963" lon="-0.90276">
        <ele>150</ele>
        <time>2023-11-13T08:08:35Z</time>
      </trkpt>
      <trkpt lat="46.95996" lon="-0.90663">
        <ele>150</ele>
        <time>2023-11-13T08:14:30Z</time>
      </trkpt>
      <trkpt lat="46.96271" lon="-0.90907">
        <ele>157</ele>
        <time>2023-11-13T08:21:39Z</time>
      </trkpt>
      <trkpt lat="46.96206" lon="-0.91006">
        <ele>155</ele>
        <time>2023-11-13T08:23:44Z</time>
      </trkpt>
      <trkpt lat="46.96306" lon="-0.91272">
        <ele>144</ele>
        <time>2023-11-13T08:28:21Z</time>
      </trkpt>
      <trkpt lat="46.96309" lon="-0.91512">
        <ele>131</ele>
        <time>2023-11-13T08:32:00Z</time>
      </trkpt>
      <trkpt lat="46.96409" lon="-0.91645">
        <ele>122</ele>
        <time>2023-11-13T08:35:00Z</time>
      </trkpt>
      <trkpt lat="46.96511" lon="-0.91701">
        <ele>115</ele>
        <time>2023-11-13T08:37:25Z</time>
      </trkpt>
      <trkpt lat="46.96567" lon="-0.91791">
        <ele>105</ele>
        <time>2023-11-13T08:39:16Z</time>
      </trkpt>
      <trkpt lat="46.96505" lon="-0.91903">
        <ele>105</ele>
        <time>2023-11-13T08:41:27Z</time>
      </trkpt>
      <trkpt lat="46.96406" lon="-0.91972">
        <ele>118</ele>
        <time>2023-11-13T08:43:54Z</time>
      </trkpt>
      <trkpt lat="46.96423" lon="-0.92113">
        <ele>117</ele>
        <time>2023-11-13T08:46:04Z</time>
      </trkpt>
      <trkpt lat="46.9652" lon="-0.92148">
        <ele>101</ele>
        <time>2023-11-13T08:48:17Z</time>
      </trkpt>
      <trkpt lat="46.96552" lon="-0.92199">
        <ele>102</ele>
        <time>2023-11-13T08:49:21Z</time>
      </trkpt>
      <trkpt lat="46.96423" lon="-0.92379">
        <ele>113</ele>
        <time>2023-11-13T08:53:18Z</time>
      </trkpt>
      <trkpt lat="46.96482" lon="-0.92585">
        <ele>109</ele>
        <time>2023-11-13T08:56:42Z</time>
      </trkpt>
      <trkpt lat="46.96379" lon="-0.92628">
        <ele>118</ele>
        <time>2023-11-13T08:59:05Z</time>
      </trkpt>
      <trkpt lat="46.96414" lon="-0.9271">
        <ele>115</ele>
        <time>2023-11-13T09:00:33Z</time>
      </trkpt>
      <trkpt lat="46.96508" lon="-0.92705">
        <ele>110</ele>
        <time>2023-11-13T09:02:38Z</time>
      </trkpt>
      <trkpt lat="46.96593" lon="-0.928">
        <ele>104</ele>
        <time>2023-11-13T09:05:01Z</time>
      </trkpt>
      <trkpt lat="46.96549" lon="-0.92907">
        <ele>105</ele>
        <time>2023-11-13T09:06:55Z</time>
      </trkpt>
      <trkpt lat="46.96625" lon="-0.92907">
        <ele>100</ele>
        <time>2023-11-13T09:08:36Z</time>
      </trkpt>
      <trkpt lat="46.96725" lon="-0.93014">
        <ele>109</ele>
        <time>2023-11-13T09:11:21Z</time>
      </trkpt>
      <trkpt lat="46.96836" lon="-0.92808">
        <ele>116</ele>
        <time>2023-11-13T09:15:20Z</time>
      </trkpt>
      <trkpt lat="46.96983" lon="-0.92933">
        <ele>129</ele>
        <time>2023-11-13T09:19:07Z</time>
      </trkpt>
      <trkpt lat="46.97044" lon="-0.92946">
        <ele>130</ele>
        <time>2023-11-13T09:20:29Z</time>
      </trkpt>
      <trkpt lat="46.97202" lon="-0.92641">
        <ele>139</ele>
        <time>2023-11-13T09:26:18Z</time>
      </trkpt>
      <trkpt lat="46.97284" lon="-0.92602">
        <ele>139</ele>
        <time>2023-11-13T09:28:13Z</time>
      </trkpt>
      <trkpt lat="46.97325" lon="-0.9219">
        <ele>143</ele>
        <time>2023-11-13T09:34:32Z</time>
      </trkpt>
      <trkpt lat="46.96953" lon="-0.9195">
        <ele>133</ele>
        <time>2023-11-13T09:43:35Z</time>
      </trkpt>
      <trkpt lat="46.96669" lon="-0.92319">
        <ele>118</ele>
        <time>2023-11-13T09:52:01Z</time>
      </trkpt>
      <trkpt lat="46.96722" lon="-0.91946">
        <ele>109</ele>
        <time>2023-11-13T09:57:48Z</time>
      </trkpt>
      <trkpt lat="46.97029" lon="-0.91714">
        <ele>122</ele>
        <time>2023-11-13T10:05:29Z</time>
      </trkpt>
      <trkpt lat="46.9705" lon="-0.91598">
        <ele>124</ele>
        <time>2023-11-13T10:07:18Z</time>
      </trkpt>
      <trkpt lat="46.97053" lon="-0.90985">
        <ele>125</ele>
        <time>2023-11-13T10:16:37Z</time>
      </trkpt>
      <trkpt lat="46.97" lon="-0.90946">
        <ele>115</ele>
        <time>2023-11-13T10:17:56Z</time>
      </trkpt>
      <trkpt lat="46.9693" lon="-0.90718">
        <ele>111</ele>
        <time>2023-11-13T10:21:43Z</time>
      </trkpt>
      <trkpt lat="46.96822" lon="-0.90568">
        <ele>108</ele>
        <time>2023-11-13T10:25:02Z</time>
      </trkpt>
      <trkpt lat="46.96699" lon="-0.90311">
        <ele>114</ele>
        <time>2023-11-13T10:29:48Z</time>
      </trkpt>
      <trkpt lat="46.96584" lon="-0.90173">
        <ele>112</ele>
        <time>2023-11-13T10:33:06Z</time>
      </trkpt>
      <trkpt lat="46.96532" lon="-0.90218">
        <ele>110</ele>
        <time>2023-11-13T10:34:27Z</time>
      </trkpt>
      <trkpt lat="46.96376" lon="-0.90083">
        <ele>113</ele>
        <time>2023-11-13T10:38:29Z</time>
      </trkpt>
      <trkpt lat="46.96204" lon="-0.90064">
        <ele>132</ele>
        <time>2023-11-13T10:42:19Z</time>
      </trkpt>
      <trkpt lat="46.96064" lon="-0.90028">
        <ele>140</ele>
        <time>2023-11-13T10:45:28Z</time>
      </trkpt>
      <trkpt lat="46.95843" lon="-0.89987">
        <ele>140</ele>
        <time>2023-11-13T10:50:26Z</time>
      </trkpt>
      <trkpt lat="46.95649" lon="-0.8992">
        <ele>138</ele>
        <time>2023-11-13T10:54:52Z</time>
      </trkpt>
      <trkpt lat="46.95663" lon="-0.89794">
        <ele>139</ele>
        <time>2023-11-13T10:56:48Z</time>
      </trkpt>
      <trkpt lat="46.95823" lon="-0.89766">
        <ele>136</ele>
        <time>2023-11-13T11:00:23Z</time>
      </trkpt>
      <trkpt lat="46.95772" lon="-0.89508">
        <ele>136</ele>
        <time>2023-11-13T11:04:28Z</time>
      </trkpt>
      <trkpt lat="46.95839" lon="-0.89268">
        <ele>126</ele>
        <time>2023-11-13T11:08:24Z</time>
      </trkpt>
      <trkpt lat="46.95663" lon="-0.89111">
        <ele>128</ele>
        <time>2023-11-13T11:12:59Z</time>
      </trkpt>
      <trkpt lat="46.95889" lon="-0.88929">
        <ele>116</ele>
        <time>2023-11-13T11:18:43Z</time>
      </trkpt>
    </trkseg>
  </trk>
</gpx>